createdAt,value
2019-03-10T00:00:14.027Z,60.27
2019-03-10T00:02:45.235Z,60.60
2019-03-10T00:05:16.446Z,61.00
2019-03-10T00:07:47.681Z,60.18
2019-03-10T00:10:18.948Z,60.70
2019-03-10T00:12:50.240Z,61.26
2019-03-10T00:15:21.548Z,61.59
2019-03-10T00:17:52.768Z,61.11
2019-03-10T00:20:24.223Z,61.33
2019-03-10T00:22:55.746Z,61.18
2019-03-10T00:25:28.504Z,61.58
2019-03-10T00:27:59.729Z,61.16
2019-03-10T00:30:30.922Z,61.49
2019-03-10T00:33:02.118Z,61.58
2019-03-10T00:35:33.365Z,61.44
2019-03-10T00:38:04.600Z,61.64
2019-03-10T00:41:11.145Z,61.27
2019-03-10T00:44:22.303Z,61.85
2019-03-10T00:47:30.429Z,62.32
2019-03-10T00:50:21.227Z,61.89
2019-03-10T00:53:02.109Z,61.88
2019-03-10T00:55:33.281Z,61.36
2019-03-10T00:58:04.567Z,61.66
2019-03-10T01:00:36.166Z,60.79
2019-03-10T01:03:07.368Z,60.74
2019-03-10T01:05:38.656Z,61.34
2019-03-10T01:08:09.825Z,61.06
2019-03-10T01:10:41.323Z,61.32
2019-03-10T01:13:12.598Z,61.06
2019-03-10T01:15:43.855Z,60.95
2019-03-10T01:18:15.807Z,60.99
2019-03-10T01:20:47.633Z,60.84
2019-03-10T01:23:18.810Z,60.88
2019-03-10T01:25:50.109Z,60.43
2019-03-10T01:28:21.291Z,60.66
2019-03-10T01:31:05.275Z,60.72
2019-03-10T01:34:07.119Z,60.20
2019-03-10T01:36:38.785Z,60.89
2019-03-10T01:39:11.266Z,61.60
2019-03-10T01:41:42.472Z,60.91
2019-03-10T01:44:15.301Z,61.34
2019-03-10T01:46:46.507Z,60.97
2019-03-10T01:49:17.711Z,61.30
2019-03-10T01:51:48.932Z,60.50
2019-03-10T01:54:27.906Z,60.53
2019-03-10T01:56:59.176Z,60.23
2019-03-10T01:59:30.390Z,60.36
2019-03-10T02:02:01.617Z,60.79
2019-03-10T02:04:32.820Z,60.68
2019-03-10T02:07:04.523Z,60.54
2019-03-10T02:09:35.797Z,60.94
2019-03-10T02:12:09.012Z,61.14
2019-03-10T02:14:40.479Z,61.47
2019-03-10T02:17:11.767Z,61.00
2019-03-10T02:19:42.997Z,61.24
2019-03-10T02:22:14.207Z,61.37
2019-03-10T02:24:45.385Z,61.15
2019-03-10T02:27:16.929Z,61.30
2019-03-10T02:29:48.116Z,61.49
2019-03-10T02:32:19.998Z,61.26
2019-03-10T02:34:51.176Z,61.99
2019-03-10T02:37:22.697Z,61.76
2019-03-10T02:39:53.891Z,61.83
2019-03-10T02:42:25.410Z,61.77
2019-03-10T02:44:56.614Z,62.24
2019-03-10T02:47:27.823Z,61.99
2019-03-10T02:49:59.031Z,62.12
2019-03-10T02:52:30.257Z,61.63
2019-03-10T02:55:02.388Z,61.76
2019-03-10T02:57:33.667Z,62.10
2019-03-10T03:00:06.533Z,61.81
2019-03-10T03:02:38.306Z,61.77
2019-03-10T03:05:10.112Z,61.37
2019-03-10T03:07:41.536Z,61.47
2019-03-10T03:10:13.311Z,61.94
2019-03-10T03:12:44.531Z,61.73
2019-03-10T03:15:16.454Z,62.22
2019-03-10T03:17:49.017Z,62.23
2019-03-10T03:20:20.238Z,61.81
2019-03-10T03:22:51.931Z,61.95
2019-03-10T03:25:23.127Z,61.81
2019-03-10T03:27:54.389Z,62.49
2019-03-10T03:30:26.188Z,62.77
2019-03-10T03:32:57.370Z,62.98
2019-03-10T03:36:01.420Z,63.03
2019-03-10T03:38:36.002Z,62.95
2019-03-10T03:41:11.194Z,62.69
2019-03-10T03:43:42.730Z,62.52
2019-03-10T03:46:14.668Z,62.63
2019-03-10T03:48:46.227Z,62.90
2019-03-10T03:51:17.806Z,62.69
2019-03-10T03:53:49.355Z,63.32
2019-03-10T03:59:46.271Z,63.27
2019-03-10T04:02:36.404Z,63.29
2019-03-10T04:05:08.490Z,63.42
2019-03-10T04:07:39.668Z,63.20
2019-03-10T04:10:10.870Z,63.29
2019-03-10T04:12:42.163Z,62.89
2019-03-10T04:15:13.763Z,64.20
2019-03-10T04:17:45.068Z,64.05
2019-03-10T04:20:16.251Z,64.22
2019-03-10T04:22:47.510Z,65.08
2019-03-10T04:25:18.702Z,64.41
2019-03-10T04:27:50.067Z,65.89
2019-03-10T04:30:21.279Z,65.55
2019-03-10T04:32:52.481Z,65.33
2019-03-10T04:35:23.796Z,65.12
2019-03-10T04:37:54.982Z,64.86
2019-03-10T04:40:26.521Z,65.06
2019-03-10T04:42:57.770Z,64.94
2019-03-10T04:45:28.954Z,64.17
2019-03-10T04:48:00.150Z,64.38
2019-03-10T04:50:31.418Z,64.20
2019-03-10T04:53:02.658Z,65.50
2019-03-10T04:55:41.936Z,64.29
2019-03-10T04:58:14.761Z,64.43
2019-03-10T05:00:48.681Z,64.61
2019-03-10T05:03:20.145Z,63.39
2019-03-10T05:05:51.497Z,63.85
2019-03-10T05:08:22.833Z,64.36
2019-03-10T05:10:54.212Z,63.78
2019-03-10T05:13:25.628Z,63.66
2019-03-10T05:15:56.918Z,64.50
2019-03-10T05:18:28.139Z,64.94
2019-03-10T05:20:59.684Z,65.44
2019-03-10T05:23:39.141Z,64.57
2019-03-10T05:26:10.521Z,64.61
2019-03-10T05:28:48.734Z,65.07
2019-03-10T05:31:20.251Z,65.29
2019-03-10T05:33:51.436Z,65.79
2019-03-10T05:36:22.628Z,65.78
2019-03-10T05:38:54.118Z,66.39
2019-03-10T05:41:25.654Z,65.36
2019-03-10T05:43:58.832Z,66.80
2019-03-10T05:46:30.401Z,66.69
2019-03-10T05:49:01.576Z,66.19
2019-03-10T05:51:32.781Z,66.49
2019-03-10T05:54:04.106Z,66.30
2019-03-10T05:56:35.340Z,67.10
2019-03-10T05:59:06.543Z,67.12
2019-03-10T06:01:37.747Z,67.39
2019-03-10T06:04:09.082Z,67.04
2019-03-10T06:06:40.276Z,66.94
2019-03-10T06:09:11.650Z,67.18
2019-03-10T06:11:42.853Z,68.23
2019-03-10T06:14:14.179Z,67.87
2019-03-10T06:16:45.418Z,67.85
2019-03-10T06:19:16.653Z,68.26
2019-03-10T06:21:47.831Z,68.11
2019-03-10T06:24:19.192Z,67.98
2019-03-10T06:26:50.386Z,68.85
2019-03-10T06:29:21.589Z,68.81
2019-03-10T06:31:54.541Z,69.97
2019-03-10T06:34:26.285Z,70.71
2019-03-10T06:36:57.523Z,70.58
2019-03-10T06:39:28.757Z,70.77
2019-03-10T06:42:00.278Z,70.59
2019-03-10T06:44:31.757Z,71.92
2019-03-10T06:47:03.124Z,71.52
2019-03-10T06:49:34.565Z,72.73
2019-03-10T06:52:06.006Z,73.76
2019-03-10T06:54:37.224Z,73.96
2019-03-10T06:57:08.753Z,74.25
2019-03-10T06:59:40.444Z,74.97
2019-03-10T07:02:12.974Z,75.52
2019-03-10T07:04:46.037Z,76.60
2019-03-10T07:07:17.371Z,76.77
2019-03-10T07:09:48.735Z,77.39
2019-03-10T07:12:19.980Z,78.22
2019-03-10T07:14:51.511Z,78.91
2019-03-10T07:17:23.252Z,78.80
2019-03-10T07:19:54.581Z,79.37
2019-03-10T07:22:25.844Z,79.47
2019-03-10T07:24:57.040Z,79.14
2019-03-10T07:27:35.623Z,78.60
2019-03-10T07:30:25.891Z,78.17
2019-03-10T07:33:16.452Z,80.05
2019-03-10T07:36:15.884Z,79.75
2019-03-10T07:39:06.405Z,78.84
2019-03-10T07:41:59.348Z,78.22
2019-03-10T07:44:55.376Z,77.80
2019-03-10T07:47:54.838Z,76.41
2019-03-10T07:50:45.298Z,75.33
2019-03-10T07:53:38.430Z,74.95
2019-03-10T07:56:28.595Z,75.18
2019-03-10T07:59:18.870Z,75.33
2019-03-10T08:02:18.105Z,75.15
2019-03-10T08:05:04.333Z,74.63
2019-03-10T08:08:06.354Z,74.04
2019-03-10T08:10:47.892Z,74.61
2019-03-10T08:13:43.883Z,75.11
2019-03-10T08:16:46.741Z,75.59
2019-03-10T08:19:37.250Z,76.31
2019-03-10T08:22:21.456Z,76.03
2019-03-10T08:25:18.147Z,77.40
2019-03-10T08:28:20.386Z,78.30
2019-03-10T08:31:19.719Z,77.27
2019-03-10T08:34:31.356Z,79.18
2019-03-10T08:37:30.507Z,78.69
2019-03-10T08:40:20.384Z,77.85
2019-03-10T08:43:22.545Z,78.42
2019-03-10T08:46:14.431Z,78.14
2019-03-10T08:48:56.490Z,78.71
2019-03-10T08:51:47.178Z,78.90
2019-03-10T08:54:40.683Z,78.97
2019-03-10T08:57:33.929Z,79.43
2019-03-10T09:00:12.944Z,78.42
2019-03-10T09:03:10.339Z,79.57
2019-03-10T09:06:09.607Z,80.23
2019-03-10T09:08:53.067Z,80.27
2019-03-10T09:11:43.774Z,80.49
2019-03-10T09:14:28.542Z,81.01
2019-03-10T09:17:18.739Z,81.12
2019-03-10T09:20:27.660Z,79.74
2019-03-10T09:23:21.183Z,79.57
2019-03-10T09:26:06.112Z,79.21
2019-03-10T09:28:47.531Z,79.41
2019-03-10T09:31:50.184Z,79.55
2019-03-10T09:34:40.377Z,79.44
2019-03-10T09:37:26.580Z,80.46
2019-03-10T09:40:12.315Z,80.26
2019-03-10T09:43:05.452Z,80.97
2019-03-10T09:45:48.333Z,80.61
2019-03-10T09:48:28.410Z,80.20
2019-03-10T09:51:25.542Z,80.31
2019-03-10T09:54:17.681Z,80.70
2019-03-10T09:57:09.841Z,81.33
2019-03-10T09:59:49.920Z,81.44
2019-03-10T10:05:49.655Z,81.46
2019-03-10T10:08:28.197Z,81.05
2019-03-10T10:11:12.130Z,81.29
2019-03-10T10:14:02.578Z,80.96
2019-03-10T10:16:51.763Z,80.88
2019-03-10T10:19:48.117Z,80.07
2019-03-10T10:22:37.051Z,81.25
2019-03-10T10:25:27.207Z,82.87
2019-03-10T10:28:13.890Z,83.69
2019-03-10T10:30:50.694Z,83.02
2019-03-10T10:33:42.008Z,81.39
2019-03-10T10:36:24.126Z,82.23
2019-03-10T10:39:17.957Z,81.46
2019-03-10T10:42:08.320Z,82.19
2019-03-10T10:45:01.725Z,81.93
2019-03-10T10:48:04.265Z,81.80
2019-03-10T10:50:54.418Z,81.59
2019-03-10T10:53:42.596Z,82.16
2019-03-10T10:56:35.939Z,81.54
2019-03-10T10:59:30.304Z,81.50
2019-03-10T11:02:07.523Z,81.79
2019-03-10T11:04:52.217Z,82.52
2019-03-10T11:07:41.060Z,82.38
2019-03-10T11:10:34.461Z,82.20
2019-03-10T11:13:34.516Z,82.48
2019-03-10T11:16:14.095Z,82.14
2019-03-10T11:19:03.077Z,82.43
2019-03-10T11:22:02.327Z,82.28
2019-03-10T11:24:52.509Z,82.02
2019-03-10T11:28:06.510Z,82.27
2019-03-10T11:31:05.892Z,82.33
2019-03-10T11:33:52.792Z,82.72
2019-03-10T11:36:42.193Z,82.69
2019-03-10T11:39:32.627Z,83.73
2019-03-10T11:42:25.351Z,84.25
2019-03-10T11:45:13.726Z,84.28
2019-03-10T11:47:55.107Z,84.15
2019-03-10T11:50:36.809Z,83.19
2019-03-10T11:53:20.226Z,83.04
2019-03-10T11:55:59.081Z,82.91
2019-03-10T11:58:38.387Z,84.59
2019-03-10T12:01:42.828Z,85.32
2019-03-10T12:04:39.207Z,85.25
2019-03-10T12:10:40.545Z,86.51
2019-03-10T12:13:11.812Z,86.54
2019-03-10T12:19:18.755Z,85.93
2019-03-10T12:21:56.800Z,86.39
2019-03-10T12:24:32.100Z,86.79
2019-03-10T12:27:03.323Z,86.92
2019-03-10T12:29:35.110Z,86.86
2019-03-10T12:32:06.369Z,86.67
2019-03-10T12:34:37.928Z,86.49
2019-03-10T12:37:10.324Z,86.01
2019-03-10T12:39:42.390Z,86.69
2019-03-10T12:42:13.769Z,86.86
2019-03-10T12:44:45.856Z,87.10
2019-03-10T12:47:17.520Z,86.95
2019-03-10T12:49:48.765Z,86.19
2019-03-10T12:52:20.035Z,87.06
2019-03-10T12:54:51.587Z,87.36
2019-03-10T12:57:22.808Z,86.29
2019-03-10T12:59:54.009Z,87.31
2019-03-10T13:02:26.556Z,87.09
2019-03-10T13:04:59.308Z,86.59
2019-03-10T13:07:30.916Z,86.80
2019-03-10T13:10:02.825Z,86.52
2019-03-10T13:12:34.027Z,86.93
2019-03-10T13:15:07.691Z,86.26
2019-03-10T13:17:39.132Z,86.84
2019-03-10T13:20:10.885Z,86.97
2019-03-10T13:22:42.252Z,86.88
2019-03-10T13:25:14.021Z,87.55
2019-03-10T13:27:45.402Z,87.44
2019-03-10T13:30:16.923Z,87.82
2019-03-10T13:32:48.170Z,85.78
2019-03-10T13:35:19.335Z,85.18
2019-03-10T13:37:50.971Z,85.78
2019-03-10T13:40:22.392Z,86.31
2019-03-10T13:42:53.853Z,87.17
2019-03-10T13:45:25.160Z,87.41
2019-03-10T13:47:56.524Z,86.38
2019-03-10T13:50:27.921Z,86.19
2019-03-10T13:52:59.228Z,86.52
2019-03-10T13:55:54.011Z,87.04
2019-03-10T13:58:25.246Z,87.44
2019-03-10T14:00:56.628Z,87.22
2019-03-10T14:03:27.993Z,87.32
2019-03-10T14:05:59.559Z,87.03
2019-03-10T14:08:30.800Z,86.24
2019-03-10T14:11:02.283Z,86.28
2019-03-10T14:13:33.632Z,85.44
2019-03-10T14:16:04.836Z,85.74
2019-03-10T14:18:36.228Z,85.25
2019-03-10T14:21:07.439Z,85.60
2019-03-10T14:23:38.990Z,84.00
2019-03-10T14:26:10.275Z,83.33
2019-03-10T14:28:41.475Z,84.16
2019-03-10T14:31:13.228Z,83.12
2019-03-10T14:33:44.522Z,82.95
2019-03-10T14:36:15.703Z,83.24
2019-03-10T14:38:46.939Z,83.33
2019-03-10T14:41:18.130Z,83.81
2019-03-10T14:43:49.536Z,83.86
2019-03-10T14:46:21.070Z,83.62
2019-03-10T14:48:52.678Z,83.83
2019-03-10T14:51:23.888Z,82.51
2019-03-10T14:53:55.156Z,81.96
2019-03-10T14:56:26.488Z,82.35
2019-03-10T14:58:57.706Z,81.16
2019-03-10T15:01:29.002Z,80.15
2019-03-10T15:04:00.292Z,79.84
2019-03-10T15:06:31.936Z,79.74
2019-03-10T15:09:03.630Z,80.35
2019-03-10T15:11:34.997Z,80.84
2019-03-10T15:14:06.367Z,81.14
2019-03-10T15:16:37.613Z,80.73
2019-03-10T15:19:08.872Z,80.53
2019-03-10T15:21:40.138Z,81.47
2019-03-10T15:24:11.420Z,79.59
2019-03-10T15:26:45.999Z,79.58
2019-03-10T15:29:15.765Z,78.99
2019-03-10T15:31:46.961Z,80.40
2019-03-10T15:34:18.331Z,80.06
2019-03-10T15:36:49.642Z,79.71
2019-03-10T15:39:20.837Z,79.94
2019-03-10T15:41:52.125Z,79.47
2019-03-10T15:44:25.633Z,79.08
2019-03-10T15:46:58.391Z,79.85
2019-03-10T15:49:29.801Z,78.59
2019-03-10T15:52:00.982Z,77.93
2019-03-10T15:54:32.214Z,78.39
2019-03-10T15:57:04.264Z,78.45
2019-03-10T15:59:35.531Z,77.33
2019-03-10T16:02:06.772Z,77.22
2019-03-10T16:04:38.291Z,77.80
2019-03-10T16:07:09.896Z,77.58
2019-03-10T16:09:41.271Z,78.28
2019-03-10T16:12:13.084Z,76.70
2019-03-10T16:14:44.760Z,76.03
2019-03-10T16:17:16.140Z,77.71
2019-03-10T16:19:47.636Z,79.45
2019-03-10T16:22:18.948Z,81.17
2019-03-10T16:24:50.675Z,81.67
2019-03-10T16:27:21.919Z,81.80
2019-03-10T16:29:53.506Z,82.12
2019-03-10T16:32:24.935Z,79.45
2019-03-10T16:34:56.151Z,77.82
2019-03-10T16:37:27.356Z,78.19
2019-03-10T16:39:58.551Z,78.87
2019-03-10T16:42:29.866Z,77.40
2019-03-10T16:45:01.074Z,76.42
2019-03-10T16:47:32.388Z,76.82
2019-03-10T16:50:03.984Z,76.86
2019-03-10T16:52:35.535Z,76.88
2019-03-10T16:55:07.409Z,78.80
2019-03-10T16:57:38.689Z,80.52
2019-03-10T17:00:10.774Z,81.08
2019-03-10T17:02:43.519Z,82.49
2019-03-10T17:05:16.281Z,82.82
2019-03-10T17:07:47.783Z,80.91
2019-03-10T17:10:18.995Z,80.54
2019-03-10T17:12:50.457Z,79.65
2019-03-10T17:15:21.986Z,78.54
2019-03-10T17:17:53.490Z,78.25
2019-03-10T17:20:24.712Z,76.99
2019-03-10T17:22:56.234Z,76.60
2019-03-10T17:25:27.787Z,76.77
2019-03-10T17:27:59.366Z,76.71
2019-03-10T17:30:32.130Z,76.65
2019-03-10T17:33:03.640Z,76.31
2019-03-10T17:35:34.820Z,75.19
2019-03-10T17:38:06.295Z,75.67
2019-03-10T17:40:37.522Z,75.71
2019-03-10T17:43:09.525Z,76.26
2019-03-10T17:45:41.133Z,75.52
2019-03-10T17:48:13.208Z,76.06
2019-03-10T17:50:44.689Z,75.95
2019-03-10T17:53:16.427Z,76.17
2019-03-10T17:55:47.721Z,74.91
2019-03-10T17:58:19.287Z,74.42
2019-03-10T18:00:50.948Z,71.67
2019-03-10T18:03:22.199Z,72.04
2019-03-10T18:05:53.401Z,72.91
2019-03-10T18:08:24.802Z,71.85
2019-03-10T18:10:56.018Z,71.93
2019-03-10T18:13:27.257Z,72.18
2019-03-10T18:15:58.555Z,71.01
2019-03-10T18:18:29.811Z,70.42
2019-03-10T18:21:01.017Z,70.60
2019-03-10T18:23:32.328Z,69.33
2019-03-10T18:26:03.682Z,69.81
2019-03-10T18:28:34.948Z,70.06
2019-03-10T18:31:06.356Z,68.94
2019-03-10T18:33:37.578Z,68.77
2019-03-10T18:36:08.794Z,68.82
2019-03-10T18:38:40.391Z,68.97
2019-03-10T18:41:11.847Z,67.81
2019-03-10T18:43:43.053Z,67.65
2019-03-10T18:46:14.261Z,66.89
2019-03-10T18:48:45.462Z,65.41
2019-03-10T18:51:16.961Z,65.83
2019-03-10T18:53:48.189Z,65.73
2019-03-10T18:56:19.401Z,65.16
2019-03-10T18:58:51.175Z,65.19
2019-03-10T19:01:22.746Z,64.92
2019-03-10T19:03:54.763Z,65.55
2019-03-10T19:06:27.955Z,65.46
2019-03-10T19:08:59.129Z,65.71
2019-03-10T19:11:30.529Z,65.88
2019-03-10T19:14:01.885Z,66.32
2019-03-10T19:16:33.537Z,65.77
2019-03-10T19:19:04.738Z,66.05
2019-03-10T19:21:36.328Z,66.11
2019-03-10T19:24:07.702Z,66.12
2019-03-10T19:26:38.981Z,66.21
2019-03-10T19:29:10.480Z,65.72
2019-03-10T19:31:41.705Z,64.18
2019-03-10T19:34:13.001Z,63.08
2019-03-10T19:36:44.361Z,63.54
2019-03-10T19:39:15.586Z,61.74
2019-03-10T19:41:46.842Z,62.39
2019-03-10T19:44:20.922Z,61.15
2019-03-10T19:46:51.307Z,60.92
2019-03-10T19:49:22.755Z,60.61
2019-03-10T19:51:55.181Z,59.15
2019-03-10T19:54:27.685Z,58.27
2019-03-10T19:56:59.061Z,55.26
2019-03-10T19:59:32.537Z,55.95
2019-03-10T20:02:04.097Z,54.64
2019-03-10T20:04:35.300Z,54.54
2019-03-10T20:07:06.491Z,53.58
2019-03-10T20:09:58.951Z,54.28
2019-03-10T20:12:30.323Z,52.45
2019-03-10T20:15:01.812Z,53.95
2019-03-10T20:17:33.515Z,54.60
2019-03-10T20:20:05.410Z,55.46
2019-03-10T20:22:36.714Z,54.15
2019-03-10T20:25:09.895Z,54.32
2019-03-10T20:27:41.783Z,54.95
2019-03-10T21:19:44.995Z,52.06
2019-03-10T21:22:16.221Z,52.75
2019-03-10T21:24:47.482Z,50.87
2019-03-10T21:27:18.736Z,50.98
2019-03-10T21:29:51.111Z,51.93
2019-03-10T21:32:22.605Z,51.82
2019-03-10T21:34:55.819Z,50.16
2019-03-10T21:37:29.514Z,50.27
2019-03-10T21:40:00.760Z,50.76
2019-03-10T21:42:33.361Z,51.05
2019-03-10T21:45:05.238Z,50.45
2019-03-10T21:47:36.787Z,49.50
2019-03-10T21:50:09.344Z,49.68
2019-03-10T21:52:40.532Z,50.00
2019-03-10T21:55:12.171Z,49.64
2019-03-10T21:57:43.448Z,49.52
2019-03-10T22:00:14.755Z,50.27
2019-03-10T22:02:45.999Z,50.48
2019-03-10T22:05:17.365Z,51.38
2019-03-10T22:07:48.602Z,52.18
2019-03-10T22:10:26.820Z,52.54
2019-03-10T22:12:52.971Z,52.78
2019-03-10T22:15:24.328Z,54.90
2019-03-10T22:17:55.699Z,54.50
2019-03-10T22:20:27.028Z,54.87
2019-03-10T22:22:58.227Z,54.89
2019-03-10T22:25:29.439Z,54.48
2019-03-10T22:28:00.922Z,53.72
2019-03-10T22:30:32.148Z,55.48
2019-03-10T22:33:03.625Z,54.32
2019-03-10T22:35:34.837Z,54.32
2019-03-10T22:38:06.341Z,54.91
2019-03-10T22:40:37.872Z,56.10
2019-03-10T22:43:09.089Z,62.78
2019-03-10T22:45:40.746Z,66.70
2019-03-10T22:48:11.919Z,66.73
2019-03-10T22:50:43.155Z,67.40
2019-03-10T22:53:14.339Z,67.13
2019-03-10T22:55:45.665Z,66.59
2019-03-10T22:58:17.554Z,65.36
2019-03-10T23:00:51.794Z,64.47
2019-03-10T23:03:23.096Z,64.93
2019-03-10T23:05:54.392Z,63.61
2019-03-10T23:08:26.096Z,62.89
2019-03-10T23:10:57.376Z,62.67
2019-03-10T23:13:28.784Z,61.98
2019-03-10T23:16:00.165Z,62.03
2019-03-10T23:18:32.570Z,60.87
2019-03-10T23:21:03.827Z,61.94
2019-03-10T23:23:35.239Z,61.15
2019-03-10T23:26:06.435Z,61.14
2019-03-10T23:28:37.732Z,61.74
2019-03-10T23:31:09.083Z,61.24
2019-03-10T23:33:40.590Z,59.98
2019-03-10T23:36:11.799Z,58.32
2019-03-10T23:38:43.012Z,57.48
2019-03-10T23:41:14.206Z,57.57
2019-03-10T23:43:45.413Z,56.54
2019-03-10T23:46:16.622Z,56.91
2019-03-10T23:48:48.135Z,56.70
2019-03-10T23:51:19.426Z,56.43
2019-03-10T23:53:50.936Z,56.75
2019-03-10T23:56:22.375Z,57.31
2019-03-10T23:58:53.709Z,56.88
